Mystic, Missouri
Current Conditions -  °F | °C
As of 5:55 PM on Saturday 25 Oct 2014 (Local Time) from KIRK Reporting Station
Clear Clear  
Wind Chill: 68°   Ceiling: Unl
Heat Index: 68°   Visibility: 10mi
Dew Point: 50°   Wind: 6mph
Humidity: 52%   Direction: 50°NE
Pressure: 30.04"   Gusts: NA
Location:  40.2455°N, 92.9523°W
Report Text: KIRK 252255Z AUTO 05005KT 10SM CLR 20/10 A3004 RMK AO2 SLP175 T02000100
Loading
Personal Weather Stations






























Interactive Weather Map
Tropical Storm Tracking
New forecast layout! Learn more

10-Day Weather Forecast

Advertisements
Track Severe Weather on mobile